sensor_id;sensor_type;location;lat;lon;timestamp;P1;durP1;ratioP1;P2;durP2;ratioP2
68765;SDS011;55756;45.582;11.484;2023-03-20T00:01:11;24.38;;;18.42;;
68765;SDS011;55756;45.582;11.484;2023-03-20T00:03:40;24.65;;;18.45;;
68765;SDS011;55756;45.582;11.484;2023-03-20T00:06:15;25.48;;;18.50;;
68765;SDS011;55756;45.582;11.484;2023-03-20T00:08:43;24.13;;;18.35;;
68765;SDS011;55756;45.582;11.484;2023-03-20T00:14:10;23.93;;;17.77;;
68765;SDS011;55756;45.582;11.484;2023-03-20T00:16:38;25.70;;;17.90;;
68765;SDS011;55756;45.582;11.484;2023-03-20T00:19:09;23.77;;;18.20;;
68765;SDS011;55756;45.582;11.484;2023-03-20T00:21:42;24.08;;;18.48;;
68765;SDS011;55756;45.582;11.484;2023-03-20T00:24:12;25.65;;;18.77;;
68765;SDS011;55756;45.582;11.484;2023-03-20T00:26:40;25.03;;;18.03;;
68765;SDS011;55756;45.582;11.484;2023-03-20T00:29:20;26.75;;;17.88;;
68765;SDS011;55756;45.582;11.484;2023-03-20T00:31:50;23.17;;;17.88;;
68765;SDS011;55756;45.582;11.484;2023-03-20T00:34:17;25.00;;;18.73;;
68765;SDS011;55756;45.582;11.484;2023-03-20T00:36:45;28.17;;;19.17;;
68765;SDS011;55756;45.582;11.484;2023-03-20T00:39:11;24.70;;;18.35;;
68765;SDS011;55756;45.582;11.484;2023-03-20T00:46:58;25.02;;;17.90;;
68765;SDS011;55756;45.582;11.484;2023-03-20T00:49:31;23.75;;;18.30;;
68765;SDS011;55756;45.582;11.484;2023-03-20T00:51:58;23.60;;;17.85;;
68765;SDS011;55756;45.582;11.484;2023-03-20T00:54:25;25.08;;;18.30;;
68765;SDS011;55756;45.582;11.484;2023-03-20T00:59:24;28.95;;;19.42;;
68765;SDS011;55756;45.582;11.484;2023-03-20T01:01:53;25.38;;;18.02;;
68765;SDS011;55756;45.582;11.484;2023-03-20T01:04:20;24.63;;;17.95;;
68765;SDS011;55756;45.582;11.484;2023-03-20T01:06:46;22.83;;;17.45;;
68765;SDS011;55756;45.582;11.484;2023-03-20T01:09:12;23.52;;;18.00;;
68765;SDS011;55756;45.582;11.484;2023-03-20T01:11:38;23.17;;;17.92;;
68765;SDS011;55756;45.582;11.484;2023-03-20T01:14:10;24.40;;;18.45;;
68765;SDS011;55756;45.582;11.484;2023-03-20T01:16:38;26.35;;;19.05;;
68765;SDS011;55756;45.582;11.484;2023-03-20T01:21:46;24.75;;;18.35;;
68765;SDS011;55756;45.582;11.484;2023-03-20T01:24:12;25.63;;;18.73;;
68765;SDS011;55756;45.582;11.484;2023-03-20T01:26:39;23.23;;;17.92;;
68765;SDS011;55756;45.582;11.484;2023-03-20T01:29:17;24.65;;;18.35;;
68765;SDS011;55756;45.582;11.484;2023-03-20T01:31:44;23.67;;;18.27;;
68765;SDS011;55756;45.582;11.484;2023-03-20T01:34:10;23.88;;;18.25;;
68765;SDS011;55756;45.582;11.484;2023-03-20T01:36:37;26.02;;;18.60;;
68765;SDS011;55756;45.582;11.484;2023-03-20T01:39:04;24.67;;;17.98;;
68765;SDS011;55756;45.582;11.484;2023-03-20T01:41:30;26.55;;;19.08;;
68765;SDS011;55756;45.582;11.484;2023-03-20T01:43:57;24.80;;;18.63;;
68765;SDS011;55756;45.582;11.484;2023-03-20T01:46:34;25.67;;;19.17;;
68765;SDS011;55756;45.582;11.484;2023-03-20T01:51:44;24.85;;;18.85;;
68765;SDS011;55756;45.582;11.484;2023-03-20T01:54:20;24.40;;;19.40;;
68765;SDS011;55756;45.582;11.484;2023-03-20T01:57:01;25.67;;;19.38;;
68765;SDS011;55756;45.582;11.484;2023-03-20T02:02:08;25.85;;;19.80;;
68765;SDS011;55756;45.582;11.484;2023-03-20T02:04:37;26.52;;;19.30;;
68765;SDS011;55756;45.582;11.484;2023-03-20T02:07:10;25.10;;;19.92;;
68765;SDS011;55756;45.582;11.484;2023-03-20T02:09:53;27.05;;;19.25;;
68765;SDS011;55756;45.582;11.484;2023-03-20T02:12:26;25.70;;;19.15;;
68765;SDS011;55756;45.582;11.484;2023-03-20T02:14:52;28.08;;;20.35;;
68765;SDS011;55756;45.582;11.484;2023-03-20T02:17:28;26.02;;;20.30;;
68765;SDS011;55756;45.582;11.484;2023-03-20T02:20:06;27.70;;;19.42;;
68765;SDS011;55756;45.582;11.484;2023-03-20T02:36:35;26.98;;;19.90;;
68765;SDS011;55756;45.582;11.484;2023-03-20T02:39:42;26.75;;;19.60;;
68765;SDS011;55756;45.582;11.484;2023-03-20T02:42:29;26.73;;;19.90;;
68765;SDS011;55756;45.582;11.484;2023-03-20T02:51:07;25.77;;;19.88;;
68765;SDS011;55756;45.582;11.484;2023-03-20T02:54:04;29.20;;;20.27;;
68765;SDS011;55756;45.582;11.484;2023-03-20T02:59:58;24.48;;;18.48;;
68765;SDS011;55756;45.582;11.484;2023-03-20T03:05:18;24.42;;;18.23;;
68765;SDS011;55756;45.582;11.484;2023-03-20T03:07:52;26.20;;;20.27;;
68765;SDS011;55756;45.582;11.484;2023-03-20T03:10:28;24.98;;;18.33;;
68765;SDS011;55756;45.582;11.484;2023-03-20T03:12:59;25.02;;;18.52;;
68765;SDS011;55756;45.582;11.484;2023-03-20T03:15:28;26.00;;;18.88;;
68765;SDS011;55756;45.582;11.484;2023-03-20T03:17:58;24.05;;;18.50;;
68765;SDS011;55756;45.582;11.484;2023-03-20T03:20:29;24.42;;;19.00;;
68765;SDS011;55756;45.582;11.484;2023-03-20T03:22:58;26.20;;;19.52;;
68765;SDS011;55756;45.582;11.484;2023-03-20T03:25:27;29.30;;;19.55;;
68765;SDS011;55756;45.582;11.484;2023-03-20T03:30:30;25.05;;;19.42;;
68765;SDS011;55756;45.582;11.484;2023-03-20T03:35:35;24.33;;;19.15;;
68765;SDS011;55756;45.582;11.484;2023-03-20T03:38:22;27.00;;;18.98;;
68765;SDS011;55756;45.582;11.484;2023-03-20T03:46:33;27.17;;;19.48;;
68765;SDS011;55756;45.582;11.484;2023-03-20T03:49:07;26.25;;;18.90;;
68765;SDS011;55756;45.582;11.484;2023-03-20T03:51:37;27.42;;;19.35;;
68765;SDS011;55756;45.582;11.484;2023-03-20T03:54:28;28.20;;;19.38;;
68765;SDS011;55756;45.582;11.484;2023-03-20T03:57:50;27.92;;;19.30;;
68765;SDS011;55756;45.582;11.484;2023-03-20T04:00:21;28.48;;;19.65;;
68765;SDS011;55756;45.582;11.484;2023-03-20T04:02:50;27.95;;;19.63;;
68765;SDS011;55756;45.582;11.484;2023-03-20T04:05:18;27.00;;;19.65;;
68765;SDS011;55756;45.582;11.484;2023-03-20T04:07:46;30.50;;;20.98;;
68765;SDS011;55756;45.582;11.484;2023-03-20T04:10:13;26.90;;;19.52;;
68765;SDS011;55756;45.582;11.484;2023-03-20T04:12:40;27.25;;;20.05;;
68765;SDS011;55756;45.582;11.484;2023-03-20T04:15:09;28.00;;;19.63;;
68765;SDS011;55756;45.582;11.484;2023-03-20T04:17:36;25.98;;;19.98;;
68765;SDS011;55756;45.582;11.484;2023-03-20T04:20:03;27.23;;;20.67;;
68765;SDS011;55756;45.582;11.484;2023-03-20T04:22:29;28.70;;;20.88;;
68765;SDS011;55756;45.582;11.484;2023-03-20T04:25:04;28.63;;;21.52;;
68765;SDS011;55756;45.582;11.484;2023-03-20T04:27:32;27.25;;;20.38;;
68765;SDS011;55756;45.582;11.484;2023-03-20T04:29:58;28.55;;;20.48;;
68765;SDS011;55756;45.582;11.484;2023-03-20T04:32:43;26.73;;;20.95;;
68765;SDS011;55756;45.582;11.484;2023-03-20T04:35:25;28.45;;;19.67;;
68765;SDS011;55756;45.582;11.484;2023-03-20T04:37:56;28.83;;;19.95;;
68765;SDS011;55756;45.582;11.484;2023-03-20T04:40:22;29.75;;;20.05;;
68765;SDS011;55756;45.582;11.484;2023-03-20T04:42:48;27.73;;;20.40;;
68765;SDS011;55756;45.582;11.484;2023-03-20T04:45:13;27.63;;;21.65;;
68765;SDS011;55756;45.582;11.484;2023-03-20T04:47:40;31.50;;;21.85;;
68765;SDS011;55756;45.582;11.484;2023-03-20T04:50:06;28.23;;;21.55;;
68765;SDS011;55756;45.582;11.484;2023-03-20T04:52:32;32.45;;;22.88;;
68765;SDS011;55756;45.582;11.484;2023-03-20T04:54:58;35.03;;;27.73;;
68765;SDS011;55756;45.582;11.484;2023-03-20T04:57:24;40.90;;;31.48;;
68765;SDS011;55756;45.582;11.484;2023-03-20T04:59:50;43.85;;;33.30;;
68765;SDS011;55756;45.582;11.484;2023-03-20T05:02:16;48.60;;;35.63;;
68765;SDS011;55756;45.582;11.484;2023-03-20T05:04:42;183.63;;;107.93;;
68765;SDS011;55756;45.582;11.484;2023-03-20T05:07:09;164.55;;;93.43;;
68765;SDS011;55756;45.582;11.484;2023-03-20T05:09:47;82.63;;;51.35;;
68765;SDS011;55756;45.582;11.484;2023-03-20T05:12:13;59.88;;;39.08;;
68765;SDS011;55756;45.582;11.484;2023-03-20T05:14:57;250.68;;;128.15;;
68765;SDS011;55756;45.582;11.484;2023-03-20T05:17:38;316.80;;;157.07;;
68765;SDS011;55756;45.582;11.484;2023-03-20T05:20:26;226.60;;;109.82;;
68765;SDS011;55756;45.582;11.484;2023-03-20T05:23:22;211.68;;;102.90;;
68765;SDS011;55756;45.582;11.484;2023-03-20T05:26:02;182.15;;;84.03;;
68765;SDS011;55756;45.582;11.484;2023-03-20T05:28:48;162.13;;;73.78;;
68765;SDS011;55756;45.582;11.484;2023-03-20T05:31:46;79.73;;;43.43;;
68765;SDS011;55756;45.582;11.484;2023-03-20T05:34:17;53.72;;;34.13;;
68765;SDS011;55756;45.582;11.484;2023-03-20T05:37:02;39.33;;;26.77;;
68765;SDS011;55756;45.582;11.484;2023-03-20T05:39:51;35.15;;;24.20;;
68765;SDS011;55756;45.582;11.484;2023-03-20T05:42:36;31.63;;;23.30;;
68765;SDS011;55756;45.582;11.484;2023-03-20T05:45:23;31.57;;;24.07;;
68765;SDS011;55756;45.582;11.484;2023-03-20T05:48:05;32.47;;;23.38;;
68765;SDS011;55756;45.582;11.484;2023-03-20T05:50:40;32.42;;;23.00;;
68765;SDS011;55756;45.582;11.484;2023-03-20T05:53:17;35.13;;;24.20;;
68765;SDS011;55756;45.582;11.484;2023-03-20T05:55:49;33.25;;;23.77;;
68765;SDS011;55756;45.582;11.484;2023-03-20T05:58:14;31.73;;;24.23;;
68765;SDS011;55756;45.582;11.484;2023-03-20T06:00:40;32.85;;;23.63;;
68765;SDS011;55756;45.582;11.484;2023-03-20T06:03:32;34.13;;;23.48;;
68765;SDS011;55756;45.582;11.484;2023-03-20T06:06:08;29.58;;;22.73;;
68765;SDS011;55756;45.582;11.484;2023-03-20T06:08:35;32.65;;;22.75;;
68765;SDS011;55756;45.582;11.484;2023-03-20T06:11:02;33.85;;;22.08;;
68765;SDS011;55756;45.582;11.484;2023-03-20T06:13:29;31.42;;;21.80;;
68765;SDS011;55756;45.582;11.484;2023-03-20T06:15:58;30.35;;;22.77;;
68765;SDS011;55756;45.582;11.484;2023-03-20T06:18:24;34.92;;;24.17;;
68765;SDS011;55756;45.582;11.484;2023-03-20T06:23:18;34.72;;;25.48;;
68765;SDS011;55756;45.582;11.484;2023-03-20T06:25:45;35.67;;;26.35;;
68765;SDS011;55756;45.582;11.484;2023-03-20T06:28:12;33.20;;;25.70;;
68765;SDS011;55756;45.582;11.484;2023-03-20T06:30:39;36.30;;;26.45;;
68765;SDS011;55756;45.582;11.484;2023-03-20T06:33:12;35.50;;;25.80;;
68765;SDS011;55756;45.582;11.484;2023-03-20T06:35:55;34.15;;;25.70;;
68765;SDS011;55756;45.582;11.484;2023-03-20T06:38:22;33.90;;;25.75;;
68765;SDS011;55756;45.582;11.484;2023-03-20T06:40:48;35.33;;;25.80;;
68765;SDS011;55756;45.582;11.484;2023-03-20T06:43:16;35.07;;;25.77;;
68765;SDS011;55756;45.582;11.484;2023-03-20T06:45:48;36.67;;;27.10;;
68765;SDS011;55756;45.582;11.484;2023-03-20T06:48:19;35.78;;;26.90;;
68765;SDS011;55756;45.582;11.484;2023-03-20T06:50:50;34.42;;;26.98;;
68765;SDS011;55756;45.582;11.484;2023-03-20T06:53:19;41.25;;;28.17;;
68765;SDS011;55756;45.582;11.484;2023-03-20T06:55:53;37.92;;;28.25;;
68765;SDS011;55756;45.582;11.484;2023-03-20T06:58:19;38.22;;;27.17;;
68765;SDS011;55756;45.582;11.484;2023-03-20T07:00:48;39.83;;;29.10;;
68765;SDS011;55756;45.582;11.484;2023-03-20T07:03:14;46.83;;;30.33;;
68765;SDS011;55756;45.582;11.484;2023-03-20T07:05:42;42.55;;;30.90;;
68765;SDS011;55756;45.582;11.484;2023-03-20T07:08:10;41.63;;;31.02;;
68765;SDS011;55756;45.582;11.484;2023-03-20T07:10:36;43.72;;;30.95;;
68765;SDS011;55756;45.582;11.484;2023-03-20T07:15:32;43.83;;;31.60;;
68765;SDS011;55756;45.582;11.484;2023-03-20T07:17:57;41.58;;;31.42;;
68765;SDS011;55756;45.582;11.484;2023-03-20T07:20:25;44.15;;;31.73;;
68765;SDS011;55756;45.582;11.484;2023-03-20T07:22:51;44.15;;;32.10;;
68765;SDS011;55756;45.582;11.484;2023-03-20T07:25:21;44.72;;;31.88;;
68765;SDS011;55756;45.582;11.484;2023-03-20T07:27:48;41.35;;;30.83;;
68765;SDS011;55756;45.582;11.484;2023-03-20T07:30:17;42.03;;;30.88;;
68765;SDS011;55756;45.582;11.484;2023-03-20T07:32:44;41.47;;;30.25;;
68765;SDS011;55756;45.582;11.484;2023-03-20T07:35:11;42.08;;;30.63;;
68765;SDS011;55756;45.582;11.484;2023-03-20T07:37:40;41.70;;;30.23;;
68765;SDS011;55756;45.582;11.484;2023-03-20T07:40:06;40.50;;;30.15;;
68765;SDS011;55756;45.582;11.484;2023-03-20T07:42:46;42.05;;;30.60;;
68765;SDS011;55756;45.582;11.484;2023-03-20T07:45:28;42.92;;;30.08;;
68765;SDS011;55756;45.582;11.484;2023-03-20T07:47:54;40.97;;;30.25;;
68765;SDS011;55756;45.582;11.484;2023-03-20T07:50:21;42.45;;;31.25;;
68765;SDS011;55756;45.582;11.484;2023-03-20T07:52:47;39.53;;;29.80;;
68765;SDS011;55756;45.582;11.484;2023-03-20T07:55:14;40.88;;;29.85;;
68765;SDS011;55756;45.582;11.484;2023-03-20T07:57:41;39.42;;;30.38;;
68765;SDS011;55756;45.582;11.484;2023-03-20T08:00:08;37.90;;;30.33;;
68765;SDS011;55756;45.582;11.484;2023-03-20T08:02:38;40.58;;;29.80;;
68765;SDS011;55756;45.582;11.484;2023-03-20T08:05:04;41.20;;;30.35;;
68765;SDS011;55756;45.582;11.484;2023-03-20T08:07:30;42.55;;;30.98;;
68765;SDS011;55756;45.582;11.484;2023-03-20T08:09:56;41.35;;;30.85;;
68765;SDS011;55756;45.582;11.484;2023-03-20T08:12:22;43.17;;;32.45;;
68765;SDS011;55756;45.582;11.484;2023-03-20T08:14:47;43.90;;;31.77;;
68765;SDS011;55756;45.582;11.484;2023-03-20T08:17:13;41.83;;;30.17;;
68765;SDS011;55756;45.582;11.484;2023-03-20T08:19:39;38.58;;;29.05;;
68765;SDS011;55756;45.582;11.484;2023-03-20T08:22:04;37.90;;;29.17;;
68765;SDS011;55756;45.582;11.484;2023-03-20T08:24:31;42.35;;;30.00;;
68765;SDS011;55756;45.582;11.484;2023-03-20T08:26:57;38.85;;;29.60;;
68765;SDS011;55756;45.582;11.484;2023-03-20T08:29:22;39.88;;;29.92;;
68765;SDS011;55756;45.582;11.484;2023-03-20T08:31:48;42.67;;;29.75;;
68765;SDS011;55756;45.582;11.484;2023-03-20T08:34:14;39.65;;;29.60;;
68765;SDS011;55756;45.582;11.484;2023-03-20T08:36:40;38.97;;;30.10;;
68765;SDS011;55756;45.582;11.484;2023-03-20T08:39:06;39.40;;;29.77;;
68765;SDS011;55756;45.582;11.484;2023-03-20T08:41:32;40.22;;;29.85;;
68765;SDS011;55756;45.582;11.484;2023-03-20T08:43:58;41.10;;;30.70;;
68765;SDS011;55756;45.582;11.484;2023-03-20T08:46:25;41.63;;;29.88;;
68765;SDS011;55756;45.582;11.484;2023-03-20T08:48:51;41.65;;;29.58;;
68765;SDS011;55756;45.582;11.484;2023-03-20T08:51:17;38.00;;;28.75;;
68765;SDS011;55756;45.582;11.484;2023-03-20T08:53:42;39.45;;;26.40;;
68765;SDS011;55756;45.582;11.484;2023-03-20T08:56:08;37.35;;;26.05;;
68765;SDS011;55756;45.582;11.484;2023-03-20T08:58:34;32.83;;;25.02;;
68765;SDS011;55756;45.582;11.484;2023-03-20T09:01:06;34.50;;;24.80;;
68765;SDS011;55756;45.582;11.484;2023-03-20T09:03:33;29.52;;;22.60;;
68765;SDS011;55756;45.582;11.484;2023-03-20T09:05:59;32.15;;;23.13;;
68765;SDS011;55756;45.582;11.484;2023-03-20T09:08:25;33.28;;;24.23;;
68765;SDS011;55756;45.582;11.484;2023-03-20T09:10:51;30.40;;;22.83;;
68765;SDS011;55756;45.582;11.484;2023-03-20T09:13:16;29.25;;;20.80;;
68765;SDS011;55756;45.582;11.484;2023-03-20T09:15:42;30.33;;;20.98;;
68765;SDS011;55756;45.582;11.484;2023-03-20T09:18:08;27.52;;;20.98;;
68765;SDS011;55756;45.582;11.484;2023-03-20T09:20:34;30.90;;;21.67;;
68765;SDS011;55756;45.582;11.484;2023-03-20T09:23:00;211.65;;;25.13;;
68765;SDS011;55756;45.582;11.484;2023-03-20T09:25:25;99.38;;;22.75;;
68765;SDS011;55756;45.582;11.484;2023-03-20T09:27:51;65.18;;;22.27;;
68765;SDS011;55756;45.582;11.484;2023-03-20T09:30:19;62.90;;;21.37;;
68765;SDS011;55756;45.582;11.484;2023-03-20T09:32:47;40.60;;;20.40;;
68765;SDS011;55756;45.582;11.484;2023-03-20T09:35:14;36.00;;;19.52;;
68765;SDS011;55756;45.582;11.484;2023-03-20T09:37:40;29.63;;;19.77;;
68765;SDS011;55756;45.582;11.484;2023-03-20T09:40:06;31.05;;;20.13;;
68765;SDS011;55756;45.582;11.484;2023-03-20T09:45:18;28.08;;;19.73;;
68765;SDS011;55756;45.582;11.484;2023-03-20T09:48:18;27.98;;;19.60;;
68765;SDS011;55756;45.582;11.484;2023-03-20T09:50:54;30.30;;;21.20;;
68765;SDS011;55756;45.582;11.484;2023-03-20T09:53:38;32.53;;;22.13;;
68765;SDS011;55756;45.582;11.484;2023-03-20T09:56:12;34.80;;;22.38;;
68765;SDS011;55756;45.582;11.484;2023-03-20T09:58:48;30.48;;;22.15;;
68765;SDS011;55756;45.582;11.484;2023-03-20T10:01:21;33.60;;;22.27;;
68765;SDS011;55756;45.582;11.484;2023-03-20T10:04:25;32.72;;;21.98;;
68765;SDS011;55756;45.582;11.484;2023-03-20T10:06:43;27.60;;;20.52;;
68765;SDS011;55756;45.582;11.484;2023-03-20T10:09:16;27.05;;;19.85;;
68765;SDS011;55756;45.582;11.484;2023-03-20T10:20:25;32.85;;;20.90;;
68765;SDS011;55756;45.582;11.484;2023-03-20T10:23:06;27.80;;;18.67;;
68765;SDS011;55756;45.582;11.484;2023-03-20T10:26:14;26.45;;;18.02;;
68765;SDS011;55756;45.582;11.484;2023-03-20T10:36:49;26.45;;;17.45;;
68765;SDS011;55756;45.582;11.484;2023-03-20T10:42:40;26.08;;;17.98;;
68765;SDS011;55756;45.582;11.484;2023-03-20T10:48:15;26.85;;;17.80;;
68765;SDS011;55756;45.582;11.484;2023-03-20T10:50:46;25.77;;;16.95;;
68765;SDS011;55756;45.582;11.484;2023-03-20T10:53:19;27.50;;;17.23;;
68765;SDS011;55756;45.582;11.484;2023-03-20T10:56:07;27.95;;;18.02;;
68765;SDS011;55756;45.582;11.484;2023-03-20T10:58:38;27.20;;;18.60;;
68765;SDS011;55756;45.582;11.484;2023-03-20T11:01:06;26.00;;;17.90;;
68765;SDS011;55756;45.582;11.484;2023-03-20T11:03:32;28.63;;;18.65;;
68765;SDS011;55756;45.582;11.484;2023-03-20T11:06:01;26.63;;;18.93;;
68765;SDS011;55756;45.582;11.484;2023-03-20T11:08:30;28.17;;;18.27;;
68765;SDS011;55756;45.582;11.484;2023-03-20T11:11:03;25.50;;;18.20;;
68765;SDS011;55756;45.582;11.484;2023-03-20T11:13:35;26.60;;;18.23;;
68765;SDS011;55756;45.582;11.484;2023-03-20T11:16:25;27.83;;;18.45;;
68765;SDS011;55756;45.582;11.484;2023-03-20T11:18:55;26.55;;;18.58;;
68765;SDS011;55756;45.582;11.484;2023-03-20T11:21:31;27.95;;;18.45;;
68765;SDS011;55756;45.582;11.484;2023-03-20T11:23:57;27.52;;;18.88;;
68765;SDS011;55756;45.582;11.484;2023-03-20T11:26:35;30.50;;;19.13;;
68765;SDS011;55756;45.582;11.484;2023-03-20T11:29:04;27.83;;;18.90;;
68765;SDS011;55756;45.582;11.484;2023-03-20T11:31:41;28.40;;;19.40;;
68765;SDS011;55756;45.582;11.484;2023-03-20T11:36:39;28.20;;;19.10;;
68765;SDS011;55756;45.582;11.484;2023-03-20T11:39:11;27.00;;;18.75;;
68765;SDS011;55756;45.582;11.484;2023-03-20T11:41:46;28.15;;;19.17;;
68765;SDS011;55756;45.582;11.484;2023-03-20T11:44:35;26.17;;;18.80;;
68765;SDS011;55756;45.582;11.484;2023-03-20T11:47:02;27.55;;;18.40;;
68765;SDS011;55756;45.582;11.484;2023-03-20T11:49:46;28.10;;;18.05;;
68765;SDS011;55756;45.582;11.484;2023-03-20T11:52:21;27.45;;;18.83;;
68765;SDS011;55756;45.582;11.484;2023-03-20T11:54:50;28.23;;;19.13;;
68765;SDS011;55756;45.582;11.484;2023-03-20T11:58:02;29.95;;;18.63;;
68765;SDS011;55756;45.582;11.484;2023-03-20T12:00:21;27.05;;;18.75;;
68765;SDS011;55756;45.582;11.484;2023-03-20T12:02:49;30.25;;;18.40;;
68765;SDS011;55756;45.582;11.484;2023-03-20T12:08:18;27.33;;;18.05;;
68765;SDS011;55756;45.582;11.484;2023-03-20T12:10:50;27.52;;;17.65;;
68765;SDS011;55756;45.582;11.484;2023-03-20T12:13:27;25.20;;;17.80;;
68765;SDS011;55756;45.582;11.484;2023-03-20T12:16:06;25.92;;;17.90;;
68765;SDS011;55756;45.582;11.484;2023-03-20T12:24:01;23.92;;;17.02;;
68765;SDS011;55756;45.582;11.484;2023-03-20T12:26:34;21.33;;;14.52;;
68765;SDS011;55756;45.582;11.484;2023-03-20T12:29:20;22.55;;;14.27;;
68765;SDS011;55756;45.582;11.484;2023-03-20T12:32:02;24.52;;;14.70;;
68765;SDS011;55756;45.582;11.484;2023-03-20T12:34:49;20.65;;;14.00;;
68765;SDS011;55756;45.582;11.484;2023-03-20T12:37:30;19.95;;;14.00;;
68765;SDS011;55756;45.582;11.484;2023-03-20T12:39:58;19.65;;;13.23;;
68765;SDS011;55756;45.582;11.484;2023-03-20T12:42:29;19.45;;;13.70;;
68765;SDS011;55756;45.582;11.484;2023-03-20T12:45:24;20.27;;;12.63;;
68765;SDS011;55756;45.582;11.484;2023-03-20T12:56:22;19.20;;;11.32;;
68765;SDS011;55756;45.582;11.484;2023-03-20T13:01:58;20.25;;;13.93;;
68765;SDS011;55756;45.582;11.484;2023-03-20T13:07:43;17.10;;;10.13;;
68765;SDS011;55756;45.582;11.484;2023-03-20T13:10:38;17.52;;;10.80;;
68765;SDS011;55756;45.582;11.484;2023-03-20T13:13:13;16.67;;;10.10;;
68765;SDS011;55756;45.582;11.484;2023-03-20T13:21:23;18.58;;;10.00;;
68765;SDS011;55756;45.582;11.484;2023-03-20T13:24:13;17.20;;;9.30;;
68765;SDS011;55756;45.582;11.484;2023-03-20T13:26:57;16.73;;;9.52;;
68765;SDS011;55756;45.582;11.484;2023-03-20T13:32:02;15.95;;;10.60;;
68765;SDS011;55756;45.582;11.484;2023-03-20T13:37:37;18.52;;;11.02;;
68765;SDS011;55756;45.582;11.484;2023-03-20T13:40:31;18.65;;;12.50;;
68765;SDS011;55756;45.582;11.484;2023-03-20T13:45:58;18.35;;;11.65;;
68765;SDS011;55756;45.582;11.484;2023-03-20T13:48:38;18.45;;;11.63;;
68765;SDS011;55756;45.582;11.484;2023-03-20T13:51:26;22.02;;;12.07;;
68765;SDS011;55756;45.582;11.484;2023-03-20T13:54:10;18.50;;;12.88;;
68765;SDS011;55756;45.582;11.484;2023-03-20T13:56:48;20.30;;;13.60;;
68765;SDS011;55756;45.582;11.484;2023-03-20T14:04:37;21.08;;;14.02;;
68765;SDS011;55756;45.582;11.484;2023-03-20T14:07:25;24.60;;;14.40;;
68765;SDS011;55756;45.582;11.484;2023-03-20T14:13:32;22.58;;;14.38;;
68765;SDS011;55756;45.582;11.484;2023-03-20T14:15:46;20.48;;;14.02;;
68765;SDS011;55756;45.582;11.484;2023-03-20T14:18:17;24.50;;;14.15;;
68765;SDS011;55756;45.582;11.484;2023-03-20T14:20:50;21.08;;;13.85;;
68765;SDS011;55756;45.582;11.484;2023-03-20T14:26:19;20.70;;;14.45;;
68765;SDS011;55756;45.582;11.484;2023-03-20T14:28:56;20.15;;;14.27;;
68765;SDS011;55756;45.582;11.484;2023-03-20T14:33:59;20.92;;;14.40;;
68765;SDS011;55756;45.582;11.484;2023-03-20T14:36:43;25.48;;;15.40;;
68765;SDS011;55756;45.582;11.484;2023-03-20T14:39:21;23.95;;;16.00;;
68765;SDS011;55756;45.582;11.484;2023-03-20T14:47:41;22.70;;;15.65;;
68765;SDS011;55756;45.582;11.484;2023-03-20T14:50:28;23.02;;;16.70;;
68765;SDS011;55756;45.582;11.484;2023-03-20T14:55:31;20.23;;;15.00;;
68765;SDS011;55756;45.582;11.484;2023-03-20T14:58:03;22.38;;;16.02;;
68765;SDS011;55756;45.582;11.484;2023-03-20T15:00:49;23.88;;;15.73;;
68765;SDS011;55756;45.582;11.484;2023-03-20T15:03:15;24.83;;;17.63;;
68765;SDS011;55756;45.582;11.484;2023-03-20T15:05:41;25.98;;;16.95;;
68765;SDS011;55756;45.582;11.484;2023-03-20T15:10:43;26.38;;;18.10;;
68765;SDS011;55756;45.582;11.484;2023-03-20T15:13:11;26.25;;;17.20;;
68765;SDS011;55756;45.582;11.484;2023-03-20T15:15:50;24.80;;;17.80;;
68765;SDS011;55756;45.582;11.484;2023-03-20T15:18:34;28.55;;;18.42;;
68765;SDS011;55756;45.582;11.484;2023-03-20T15:21:35;24.40;;;17.92;;
68765;SDS011;55756;45.582;11.484;2023-03-20T15:24:02;26.60;;;18.45;;
68765;SDS011;55756;45.582;11.484;2023-03-20T15:26:30;23.75;;;18.25;;
68765;SDS011;55756;45.582;11.484;2023-03-20T15:28:59;28.17;;;18.73;;
68765;SDS011;55756;45.582;11.484;2023-03-20T15:31:33;27.85;;;18.88;;
68765;SDS011;55756;45.582;11.484;2023-03-20T15:34:02;25.20;;;18.75;;
68765;SDS011;55756;45.582;11.484;2023-03-20T15:36:32;27.02;;;18.95;;
68765;SDS011;55756;45.582;11.484;2023-03-20T15:41:38;27.98;;;19.63;;
68765;SDS011;55756;45.582;11.484;2023-03-20T15:44:14;29.05;;;20.52;;
68765;SDS011;55756;45.582;11.484;2023-03-20T15:49:33;26.43;;;19.70;;
68765;SDS011;55756;45.582;11.484;2023-03-20T15:51:59;29.85;;;19.85;;
68765;SDS011;55756;45.582;11.484;2023-03-20T15:54:28;25.55;;;19.38;;
68765;SDS011;55756;45.582;11.484;2023-03-20T15:56:55;32.33;;;19.95;;
68765;SDS011;55756;45.582;11.484;2023-03-20T15:59:24;26.42;;;19.55;;
68765;SDS011;55756;45.582;11.484;2023-03-20T16:01:55;25.75;;;18.55;;
68765;SDS011;55756;45.582;11.484;2023-03-20T16:04:22;27.13;;;18.80;;
68765;SDS011;55756;45.582;11.484;2023-03-20T16:06:55;25.52;;;18.80;;
68765;SDS011;55756;45.582;11.484;2023-03-20T16:09:23;27.45;;;19.02;;
68765;SDS011;55756;45.582;11.484;2023-03-20T16:12:00;25.77;;;18.45;;
68765;SDS011;55756;45.582;11.484;2023-03-20T16:14:30;24.88;;;18.02;;
68765;SDS011;55756;45.582;11.484;2023-03-20T16:16:58;28.40;;;17.65;;
68765;SDS011;55756;45.582;11.484;2023-03-20T16:19:26;24.63;;;17.55;;
68765;SDS011;55756;45.582;11.484;2023-03-20T16:21:57;24.85;;;17.35;;
68765;SDS011;55756;45.582;11.484;2023-03-20T16:24:27;23.48;;;17.70;;
68765;SDS011;55756;45.582;11.484;2023-03-20T16:26:55;26.20;;;17.27;;
68765;SDS011;55756;45.582;11.484;2023-03-20T16:29:22;23.50;;;16.13;;
68765;SDS011;55756;45.582;11.484;2023-03-20T16:32:02;22.70;;;16.02;;
68765;SDS011;55756;45.582;11.484;2023-03-20T16:34:39;27.35;;;17.05;;
68765;SDS011;55756;45.582;11.484;2023-03-20T16:37:07;27.52;;;16.55;;
68765;SDS011;55756;45.582;11.484;2023-03-20T16:39:46;22.63;;;16.63;;
68765;SDS011;55756;45.582;11.484;2023-03-20T16:42:22;24.50;;;15.73;;
68765;SDS011;55756;45.582;11.484;2023-03-20T16:44:53;23.98;;;16.33;;
68765;SDS011;55756;45.582;11.484;2023-03-20T16:47:21;23.90;;;16.58;;
68765;SDS011;55756;45.582;11.484;2023-03-20T16:50:19;21.58;;;15.73;;
68765;SDS011;55756;45.582;11.484;2023-03-20T16:52:50;22.85;;;16.50;;
68765;SDS011;55756;45.582;11.484;2023-03-20T16:55:22;23.48;;;16.58;;
68765;SDS011;55756;45.582;11.484;2023-03-20T16:57:53;28.10;;;18.95;;
68765;SDS011;55756;45.582;11.484;2023-03-20T17:00:27;26.98;;;17.75;;
68765;SDS011;55756;45.582;11.484;2023-03-20T17:02:59;26.15;;;16.80;;
68765;SDS011;55756;45.582;11.484;2023-03-20T17:08:14;23.63;;;16.48;;
68765;SDS011;55756;45.582;11.484;2023-03-20T17:10:48;24.52;;;16.67;;
68765;SDS011;55756;45.582;11.484;2023-03-20T17:13:17;25.00;;;16.98;;
68765;SDS011;55756;45.582;11.484;2023-03-20T17:15:43;25.98;;;18.77;;
68765;SDS011;55756;45.582;11.484;2023-03-20T17:18:12;28.40;;;17.75;;